Time;durP1;ratioP1;P1;durP2;ratioP2;P2;SDS_P1;SDS_P2;PMS_P1;PMS_P2;Temp;Humidity;BMP_temperature;BMP_pressure;BME280_temperature;BME280_humidity;BME280_pressure;Samples;Min_cycle;Max_cycle;Signal;HPM_P1;HPM_P2
2022/01/06 00:00:32;;;;;;;29.13;4.80;;;3.60;99.90;;;;;;4810292;29;20041;-86
2022/01/06 00:02:58;;;;;;;28.80;3.87;;;3.80;99.90;;;;;;4814952;29;20216;-86
2022/01/06 00:05:24;;;;;;;28.70;3.70;;;3.90;99.90;;;;;;4804913;29;20313;-87
2022/01/06 00:07:51;;;;;;;28.38;4.15;;;4.00;99.90;;;;;;4821865;29;20120;-88
2022/01/06 00:10:17;;;;;;;30.83;4.15;;;4.10;99.90;;;;;;4805007;29;20129;-87
2022/01/06 00:13:07;;;;;;;30.60;5.90;;;4.00;99.90;;;;;;4806642;29;20589;-87
2022/01/06 00:15:35;;;;;;;;;;;4.10;99.90;;;;;;4815302;29;20117;-87
2022/01/06 00:23:34;;;;;;;22.35;3.30;;;3.90;99.90;;;;;;4835209;29;20505;-87
2022/01/06 00:26:01;;;;;;;22.55;2.83;;;3.80;99.90;;;;;;4822583;29;20049;-87
2022/01/06 00:28:27;;;;;;;21.08;2.83;;;3.60;99.90;;;;;;4817691;29;20044;-87
2022/01/06 00:30:53;;;;;;;27.70;3.30;;;3.60;99.90;;;;;;4825330;29;20124;-87
2022/01/06 00:33:20;;;;;;;24.88;3.00;;;3.50;99.90;;;;;;4810586;29;20136;-86
2022/01/06 00:35:46;;;;;;;19.80;2.22;;;3.50;99.90;;;;;;4826235;29;20081;-86
2022/01/06 00:38:12;;;;;;;17.65;2.90;;;3.40;99.90;;;;;;4826751;29;20473;-87
2022/01/06 00:40:38;;;;;;;30.13;3.30;;;3.40;99.90;;;;;;4824313;29;20372;-86
2022/01/06 00:43:06;;;;;;;23.73;2.90;;;3.30;99.90;;;;;;4823297;29;20033;-86
2022/01/06 00:45:32;;;;;;;21.63;2.92;;;3.30;99.90;;;;;;4850874;29;20061;-87
2022/01/06 00:47:59;;;;;;;22.88;3.05;;;3.20;99.90;;;;;;4822682;29;20499;-87
2022/01/06 00:50:25;;;;;;;16.88;2.63;;;3.30;99.90;;;;;;4822466;29;20090;-87
2022/01/06 00:52:51;;;;;;;17.60;3.28;;;3.30;99.90;;;;;;4814947;29;20049;-87
2022/01/06 00:55:17;;;;;;;21.70;3.63;;;3.30;99.90;;;;;;4821817;29;20050;-87
2022/01/06 00:57:43;;;;;;;17.33;2.57;;;3.30;99.90;;;;;;4831588;29;20120;-87
2022/01/06 01:00:09;;;;;;;16.23;2.90;;;3.30;99.90;;;;;;4805029;29;20037;-87
2022/01/06 01:02:35;;;;;;;18.58;2.60;;;3.20;99.90;;;;;;4818786;29;20041;-87
2022/01/06 01:05:01;;;;;;;21.83;3.00;;;3.20;99.90;;;;;;4836239;29;20113;-87
2022/01/06 01:07:27;;;;;;;16.33;2.70;;;3.10;99.90;;;;;;4825028;29;20049;-86
2022/01/06 01:09:55;;;;;;;21.83;2.57;;;3.00;99.90;;;;;;4811823;29;20305;-86
2022/01/06 01:12:24;;;;;;;20.75;2.60;;;2.90;99.90;;;;;;4822242;29;20069;-86
2022/01/06 01:15:06;;;;;;;22.42;3.50;;;2.90;99.90;;;;;;4804758;29;20574;-86
2022/01/06 01:17:33;;;;;;;27.42;2.63;;;2.80;99.90;;;;;;4810452;29;20053;-87
2022/01/06 01:19:59;;;;;;;19.05;2.65;;;2.70;99.90;;;;;;4826446;29;20046;-86
2022/01/06 01:22:25;;;;;;;16.90;2.65;;;2.80;99.90;;;;;;4833599;29;20056;-86
2022/01/06 01:24:50;;;;;;;16.93;3.03;;;2.70;99.90;;;;;;4816506;29;20507;-86
2022/01/06 01:27:20;;;;;;;21.27;3.33;;;2.70;99.90;;;;;;4818366;29;20337;-86
2022/01/06 01:30:01;;;;;;;16.40;3.17;;;2.60;99.90;;;;;;4819948;29;20518;-86
2022/01/06 01:32:33;;;;;;;15.45;1.80;;;2.50;99.90;;;;;;4825677;29;20094;-86
2022/01/06 01:35:01;;;;;;;18.35;2.35;;;2.50;99.90;;;;;;4823309;29;20050;-86
2022/01/06 01:37:31;;;;;;;14.82;1.60;;;2.50;99.90;;;;;;4796638;29;20046;-86
2022/01/06 01:39:59;;;;;;;16.35;2.45;;;2.50;99.90;;;;;;4811317;29;20038;-86
2022/01/06 01:42:26;;;;;;;18.33;2.60;;;2.50;99.90;;;;;;4808479;29;20416;-86
2022/01/06 01:44:53;;;;;;;21.00;2.88;;;2.50;99.90;;;;;;4806499;29;20444;-86
2022/01/06 01:47:38;;;;;;;21.33;3.28;;;2.60;99.90;;;;;;4807629;29;20117;-86
2022/01/06 01:50:13;;;;;;;20.77;2.10;;;2.60;99.90;;;;;;4838101;29;20507;-86
2022/01/06 01:52:45;;;;;;;12.63;1.98;;;2.60;99.90;;;;;;4829854;29;20056;-86
2022/01/06 01:55:17;;;;;;;20.58;2.63;;;2.60;99.90;;;;;;4819339;29;20133;-86
2022/01/06 01:57:43;;;;;;;26.42;2.53;;;2.50;99.90;;;;;;4824272;29;20045;-86
2022/01/06 02:00:11;;;;;;;23.85;2.70;;;2.50;99.90;;;;;;4803677;29;20095;-86
2022/01/06 02:02:37;;;;;;;22.27;2.67;;;2.40;99.90;;;;;;4801082;29;20507;-86
2022/01/06 02:05:04;;;;;;;20.52;3.08;;;2.40;99.90;;;;;;4795258;29;20065;-86
2022/01/06 02:07:30;;;;;;;21.13;2.30;;;2.40;99.90;;;;;;4804311;29;20068;-86
2022/01/06 02:09:56;;;;;;;21.65;2.70;;;2.30;99.90;;;;;;4847712;29;20045;-86
2022/01/06 02:12:31;;;;;;;16.80;2.90;;;2.30;99.90;;;;;;4785211;29;20149;-87
2022/01/06 02:14:58;;;;;;;16.40;2.50;;;2.30;99.90;;;;;;4824960;29;20048;-86
2022/01/06 02:17:24;;;;;;;18.75;2.42;;;2.20;99.90;;;;;;4799330;29;20056;-86
2022/01/06 02:20:13;;;;;;;18.75;2.85;;;2.10;99.90;;;;;;4817735;29;20042;-86
2022/01/06 02:22:39;;;;;;;21.50;2.92;;;2.10;99.90;;;;;;4826041;29;20034;-86
2022/01/06 02:25:18;;;;;;;24.13;2.75;;;2.10;99.90;;;;;;4810546;29;20046;-86
2022/01/06 02:27:47;;;;;;;17.77;2.65;;;1.90;99.90;;;;;;4817752;29;20053;-86
2022/01/06 02:30:14;;;;;;;22.73;2.30;;;1.90;99.90;;;;;;4824678;29;20060;-86
2022/01/06 02:32:40;;;;;;;16.73;1.75;;;1.80;99.90;;;;;;4813145;29;20037;-87
2022/01/06 02:35:11;;;;;;;18.92;2.80;;;1.80;99.90;;;;;;4824387;29;20169;-86
2022/01/06 02:37:37;;;;;;;19.50;3.05;;;1.70;99.90;;;;;;4810986;29;20049;-86
2022/01/06 02:40:09;;;;;;;14.23;1.83;;;1.70;99.90;;;;;;4807115;29;20459;-86
2022/01/06 02:42:38;;;;;;;16.83;2.10;;;1.70;99.90;;;;;;4817252;29;20396;-86
2022/01/06 02:45:05;;;;;;;18.25;2.30;;;1.60;99.90;;;;;;4825546;29;20643;-86
2022/01/06 02:47:31;;;;;;;19.35;2.47;;;1.60;99.90;;;;;;4837378;29;20052;-86
2022/01/06 02:49:57;;;;;;;20.90;2.22;;;1.50;99.90;;;;;;4795835;29;20041;-86
2022/01/06 02:52:23;;;;;;;19.47;2.47;;;1.50;99.90;;;;;;4817520;29;20061;-86
2022/01/06 02:54:49;;;;;;;17.17;2.03;;;1.50;99.90;;;;;;4800785;29;20339;-86
2022/01/06 02:57:15;;;;;;;14.63;1.70;;;1.30;99.90;;;;;;4827243;29;20056;-86
2022/01/06 02:59:40;;;;;;;17.17;1.90;;;1.30;99.90;;;;;;4827549;29;20041;-86
2022/01/06 03:02:06;;;;;;;19.50;2.50;;;1.20;99.90;;;;;;4798067;29;20056;-86
2022/01/06 03:04:32;;;;;;;18.80;2.10;;;1.10;99.90;;;;;;4801932;29;20499;-86
2022/01/06 03:06:59;;;;;;;17.83;1.97;;;1.00;99.90;;;;;;4810048;29;20038;-86
2022/01/06 03:09:35;;;;;;;20.13;1.75;;;0.90;99.90;;;;;;4815727;29;20042;-86
2022/01/06 03:12:01;;;;;;;14.38;1.65;;;0.80;99.90;;;;;;4811990;29;20117;-86
2022/01/06 03:14:27;;;;;;;14.23;2.10;;;0.70;99.90;;;;;;4796827;29;20041;-86
2022/01/06 03:16:52;;;;;;;17.73;1.90;;;0.60;99.90;;;;;;4807708;29;20042;-86
2022/01/06 03:19:18;;;;;;;17.27;1.90;;;0.60;99.90;;;;;;4801210;29;20560;-86
2022/01/06 03:21:44;;;;;;;15.23;2.40;;;0.60;99.90;;;;;;4807185;29;20136;-86
2022/01/06 03:24:09;;;;;;;13.50;2.30;;;0.60;99.90;;;;;;4828129;29;20075;-86
2022/01/06 03:26:35;;;;;;;21.17;2.23;;;0.50;99.90;;;;;;4794336;29;20080;-86
2022/01/06 03:29:01;;;;;;;16.77;2.27;;;0.50;99.90;;;;;;4829299;29;20034;-86
2022/01/06 03:31:27;;;;;;;12.10;1.80;;;0.50;99.90;;;;;;4832327;29;20050;-86
2022/01/06 03:33:52;;;;;;;17.33;2.53;;;0.40;99.90;;;;;;4847828;29;20053;-86
2022/01/06 03:36:18;;;;;;;21.73;2.47;;;0.40;99.90;;;;;;4819229;29;20052;-86
2022/01/06 03:38:44;;;;;;;22.37;2.37;;;0.40;99.90;;;;;;4817134;29;20046;-86
2022/01/06 03:41:09;;;;;;;18.37;2.40;;;0.40;99.90;;;;;;4822404;29;20045;-86
2022/01/06 03:43:35;;;;;;;18.20;1.90;;;0.40;99.90;;;;;;4824173;29;20475;-86
2022/01/06 03:46:01;;;;;;;15.33;2.60;;;0.40;99.90;;;;;;4821508;29;20053;-86
2022/01/06 03:48:27;;;;;;;9.87;1.70;;;0.40;99.90;;;;;;4835848;29;20046;-86
2022/01/06 03:50:52;;;;;;;16.47;2.03;;;0.30;99.90;;;;;;4812434;29;20053;-86
2022/01/06 03:53:18;;;;;;;17.30;1.97;;;0.30;99.90;;;;;;4809412;29;20052;-86
2022/01/06 03:55:44;;;;;;;20.87;2.00;;;0.20;99.90;;;;;;4816836;29;20128;-86
2022/01/06 03:58:11;;;;;;;21.13;2.90;;;0.20;99.90;;;;;;4822844;29;20045;-87
2022/01/06 04:00:37;;;;;;;14.23;2.60;;;0.20;99.90;;;;;;4809929;29;20052;-86
2022/01/06 04:03:03;;;;;;;12.00;1.88;;;0.20;99.90;;;;;;4840060;29;20042;-86
2022/01/06 04:05:31;;;;;;;15.05;1.83;;;0.20;99.90;;;;;;4824278;29;20057;-86
2022/01/06 04:07:57;;;;;;;18.15;2.10;;;0.10;99.90;;;;;;4821596;29;20086;-86
2022/01/06 04:10:23;;;;;;;16.90;1.70;;;0.00;99.90;;;;;;4802011;29;20172;-86
2022/01/06 04:12:49;;;;;;;15.37;2.57;;;-0.10;99.90;;;;;;4838487;29;20049;-86
2022/01/06 04:15:14;;;;;;;18.40;2.33;;;-0.10;99.90;;;;;;4838075;29;20046;-86
2022/01/06 04:17:42;;;;;;;19.33;2.37;;;-0.10;99.90;;;;;;4824927;29;20042;-87
2022/01/06 04:20:09;;;;;;;18.52;1.83;;;-0.20;99.90;;;;;;4832623;29;20366;-87
2022/01/06 04:22:36;;;;;;;15.18;1.83;;;-0.20;99.90;;;;;;4838496;29;20049;-87
2022/01/06 04:25:02;;;;;;;11.48;1.83;;;-0.30;99.90;;;;;;4852925;29;20061;-87
2022/01/06 04:27:27;;;;;;;13.50;1.70;;;-0.30;99.90;;;;;;4805659;29;20045;-86
2022/01/06 04:29:53;;;;;;;15.47;2.40;;;-0.40;99.90;;;;;;4813625;29;20057;-86
2022/01/06 04:32:19;;;;;;;16.77;2.00;;;-0.40;99.90;;;;;;4833565;29;20062;-86
2022/01/06 04:34:45;;;;;;;15.07;1.70;;;-0.40;99.90;;;;;;4842408;29;20069;-86
2022/01/06 04:37:10;;;;;;;19.40;1.73;;;-0.50;99.90;;;;;;4842574;29;20101;-87
2022/01/06 04:39:36;;;;;;;13.00;2.10;;;-0.50;99.90;;;;;;4825285;29;20040;-87
2022/01/06 04:42:02;;;;;;;10.77;1.60;;;-0.50;99.90;;;;;;4840342;29;20038;-87
2022/01/06 04:44:28;;;;;;;15.07;2.20;;;-0.40;99.90;;;;;;4825762;29;20046;-87
2022/01/06 04:46:54;;;;;;;22.67;2.53;;;-0.50;99.90;;;;;;4824903;29;20038;-86
2022/01/06 04:49:19;;;;;;;18.03;2.00;;;-0.50;99.90;;;;;;4814788;29;20074;-86
2022/01/06 04:51:45;;;;;;;16.13;2.67;;;-0.50;99.90;;;;;;4832624;29;20043;-86
2022/01/06 04:54:11;;;;;;;19.23;2.03;;;-0.50;99.90;;;;;;4829925;29;20541;-86
2022/01/06 04:56:37;;;;;;;14.40;2.20;;;-0.50;99.90;;;;;;4827196;29;20060;-86
2022/01/06 04:59:08;;;;;;;20.93;2.23;;;-0.50;99.90;;;;;;4827670;29;20049;-86
2022/01/06 05:01:35;;;;;;;17.08;1.52;;;-0.50;99.90;;;;;;4845332;29;20041;-86
2022/01/06 05:04:01;;;;;;;18.13;2.30;;;-0.40;99.90;;;;;;4830465;29;20076;-86
2022/01/06 05:06:27;;;;;;;17.80;2.00;;;-0.40;99.90;;;;;;4849850;29;20058;-86
2022/01/06 05:08:53;;;;;;;18.70;2.15;;;-0.40;99.90;;;;;;4845787;29;20077;-86
2022/01/06 05:11:19;;;;;;;8.47;1.53;;;-0.50;99.90;;;;;;4845847;29;20074;-86
2022/01/06 05:13:45;;;;;;;14.88;1.50;;;-0.50;99.90;;;;;;4818170;29;20112;-86
2022/01/06 05:16:11;;;;;;;18.55;2.17;;;-0.60;99.90;;;;;;4833750;29;20073;-86
2022/01/06 05:18:38;;;;;;;16.40;2.07;;;-0.60;99.90;;;;;;4848698;29;20048;-86
2022/01/06 05:21:08;;;;;;;25.27;2.58;;;-0.70;99.90;;;;;;4830497;29;20042;-86
2022/01/06 05:23:34;;;;;;;22.77;2.08;;;-0.70;99.90;;;;;;4835792;29;20038;-86
2022/01/06 05:26:00;;;;;;;13.93;2.08;;;-0.80;99.90;;;;;;4816693;29;20046;-86
2022/01/06 05:28:26;;;;;;;15.23;1.73;;;-0.70;99.90;;;;;;4837727;29;20042;-86
2022/01/06 05:30:52;;;;;;;16.27;2.30;;;-0.90;99.90;;;;;;4836368;29;20384;-87
2022/01/06 05:33:18;;;;;;;19.40;1.80;;;-0.90;99.90;;;;;;4831740;29;20078;-87
2022/01/06 05:35:50;;;;;;;17.75;2.67;;;-0.80;99.90;;;;;;4833609;29;20100;-87
2022/01/06 05:38:16;;;;;;;17.80;2.35;;;-0.90;99.90;;;;;;4831082;29;20120;-87
2022/01/06 05:40:42;;;;;;;16.20;2.27;;;-0.90;99.90;;;;;;4833323;29;20042;-87
2022/01/06 05:43:08;;;;;;;16.57;2.00;;;-0.90;99.90;;;;;;4840558;29;20046;-87
2022/01/06 05:45:34;;;;;;;19.10;2.23;;;-1.00;99.90;;;;;;4829615;29;20054;-86
2022/01/06 05:47:59;;;;;;;19.60;2.87;;;-0.90;99.90;;;;;;4845759;29;20049;-87
2022/01/06 05:50:27;;;;;;;18.63;2.27;;;-1.00;99.90;;;;;;4832654;29;20077;-87
2022/01/06 05:52:54;;;;;;;21.23;2.75;;;-1.00;99.90;;;;;;4851425;29;20041;-87
2022/01/06 05:55:21;;;;;;;19.33;2.03;;;-1.00;99.90;;;;;;4837968;29;20050;-87
2022/01/06 05:57:47;;;;;;;17.40;2.45;;;-1.00;99.90;;;;;;4848366;29;20096;-87
2022/01/06 06:00:14;;;;;;;21.20;3.25;;;-1.00;99.90;;;;;;4814182;29;20061;-87
2022/01/06 06:02:39;;;;;;;23.98;2.85;;;-1.00;99.90;;;;;;4837169;29;20035;-87
2022/01/06 06:05:06;;;;;;;18.27;2.73;;;-1.00;99.90;;;;;;4809702;29;20741;-87
2022/01/06 06:07:34;;;;;;;20.45;2.35;;;-1.00;99.90;;;;;;4810106;29;20064;-87
2022/01/06 06:10:00;;;;;;;20.35;2.63;;;-1.00;99.90;;;;;;4808119;29;20085;-87
2022/01/06 06:12:26;;;;;;;16.23;2.73;;;-1.00;99.90;;;;;;4797296;29;20106;-87
2022/01/06 06:14:52;;;;;;;14.20;2.43;;;-1.00;99.90;;;;;;4810498;29;20082;-87
2022/01/06 06:17:17;;;;;;;20.40;2.70;;;-1.00;99.90;;;;;;4808348;29;20049;-87
2022/01/06 06:19:43;;;;;;;29.83;3.73;;;-1.00;99.90;;;;;;4814419;29;20052;-87
2022/01/06 06:22:10;;;;;;;23.00;2.90;;;-1.00;99.90;;;;;;4810417;29;20065;-87
2022/01/06 06:24:37;;;;;;;19.02;3.35;;;-0.90;99.90;;;;;;4806775;29;20592;-86
2022/01/06 06:27:03;;;;;;;21.08;2.90;;;-1.00;99.90;;;;;;4840038;29;20084;-86
2022/01/06 06:29:29;;;;;;;24.53;3.17;;;-1.00;99.90;;;;;;4811708;29;20069;-86
2022/01/06 06:31:55;;;;;;;21.58;2.83;;;-1.00;99.90;;;;;;4824656;29;20328;-86
2022/01/06 06:34:21;;;;;;;23.33;3.47;;;-1.00;99.90;;;;;;4827673;29;20045;-86
2022/01/06 06:36:47;;;;;;;23.27;2.70;;;-1.00;99.90;;;;;;4836329;29;20073;-86
2022/01/06 06:39:13;;;;;;;31.03;3.17;;;-1.00;99.90;;;;;;4826520;29;20290;-86
2022/01/06 06:41:39;;;;;;;20.53;2.87;;;-1.00;99.90;;;;;;4826464;29;20325;-86
2022/01/06 06:44:11;;;;;;;21.98;2.97;;;-1.10;99.90;;;;;;4844735;29;20386;-86
2022/01/06 06:46:36;;;;;;;21.60;2.70;;;-1.10;99.90;;;;;;4841679;29;20109;-86
2022/01/06 06:49:02;;;;;;;34.10;5.53;;;-1.10;99.90;;;;;;4836004;29;20290;-86
2022/01/06 06:51:28;;;;;;;20.52;3.35;;;-1.10;99.90;;;;;;4829830;29;20139;-86
2022/01/06 06:53:54;;;;;;;25.07;3.20;;;-1.10;99.90;;;;;;4807762;29;20046;-86
2022/01/06 06:56:21;;;;;;;17.27;2.95;;;-1.10;99.90;;;;;;4825801;29;20053;-86
2022/01/06 06:58:53;;;;;;;21.55;3.03;;;-1.10;99.90;;;;;;4833570;29;20078;-86
2022/01/06 07:01:19;;;;;;;24.67;2.93;;;-1.00;99.90;;;;;;4846854;29;20069;-87
2022/01/06 07:03:51;;;;;;;20.33;3.13;;;-1.00;99.90;;;;;;4841532;29;20049;-86
2022/01/06 07:06:17;;;;;;;20.52;3.10;;;-1.00;99.90;;;;;;4820661;29;20065;-86
2022/01/06 07:08:42;;;;;;;19.70;3.67;;;-1.10;99.90;;;;;;4835647;29;20049;-86
2022/01/06 07:11:08;;;;;;;16.63;2.63;;;-1.00;99.90;;;;;;4819662;29;20037;-86
2022/01/06 07:13:34;;;;;;;24.87;3.23;;;-1.00;99.90;;;;;;4822841;29;20046;-86
2022/01/06 07:16:00;;;;;;;25.27;3.50;;;-1.00;99.90;;;;;;4827165;29;20057;-86
2022/01/06 07:18:26;;;;;;;22.83;2.43;;;-1.00;99.90;;;;;;4840238;29;20068;-86
2022/01/06 07:20:52;;;;;;;20.67;3.47;;;-1.00;99.90;;;;;;4841423;29;20377;-86
2022/01/06 07:23:20;;;;;;;20.43;2.90;;;-0.90;99.90;;;;;;4841806;29;20042;-86
2022/01/06 07:25:45;;;;;;;21.02;2.95;;;-0.90;99.90;;;;;;4838109;29;20097;-86
2022/01/06 07:28:11;;;;;;;27.03;3.00;;;-0.80;99.90;;;;;;4829013;29;20050;-86
2022/01/06 07:30:37;;;;;;;19.27;2.73;;;-0.80;99.90;;;;;;4842871;29;20045;-86
2022/01/06 07:33:03;;;;;;;22.98;2.78;;;-0.70;99.90;;;;;;4857505;29;20159;-86
2022/01/06 07:35:29;;;;;;;23.92;3.47;;;-0.70;99.90;;;;;;4828684;29;20052;-86
2022/01/06 07:38:01;;;;;;;27.23;3.38;;;-0.60;99.90;;;;;;4836473;29;20047;-86
2022/01/06 07:40:27;;;;;;;22.47;3.00;;;-0.60;99.90;;;;;;4823790;29;20050;-86
2022/01/06 07:42:59;;;;;;;25.00;2.90;;;-0.50;99.90;;;;;;4842314;29;20565;-86
2022/01/06 07:45:25;;;;;;;26.63;3.42;;;-0.50;99.90;;;;;;4827277;29;20073;-86
2022/01/06 07:48:03;;;;;;;18.03;2.30;;;-0.50;99.90;;;;;;4824609;29;20073;-86
2022/01/06 07:50:32;;;;;;;20.05;3.08;;;-0.40;99.90;;;;;;4834127;29;20042;-87
2022/01/06 07:52:58;;;;;;;23.90;3.05;;;-0.40;99.90;;;;;;4831668;29;20053;-86
2022/01/06 07:55:25;;;;;;;22.35;3.25;;;-0.50;99.90;;;;;;4798777;29;20046;-86
2022/01/06 07:57:52;;;;;;;28.88;3.85;;;-0.40;99.90;;;;;;4822963;29;20048;-86
2022/01/06 08:00:22;;;;;;;22.15;3.50;;;-0.40;99.90;;;;;;4832075;29;20342;-86
2022/01/06 08:02:48;;;;;;;22.92;3.65;;;-0.40;99.90;;;;;;4830489;29;20074;-86
2022/01/06 08:05:15;;;;;;;25.47;4.33;;;-0.40;99.90;;;;;;4825143;29;20062;-86
2022/01/06 08:07:42;;;;;;;23.05;4.13;;;-0.40;99.90;;;;;;4829272;29;20045;-86
2022/01/06 08:10:09;;;;;;;23.30;3.58;;;-0.40;99.90;;;;;;4839008;29;20065;-86
2022/01/06 08:12:36;;;;;;;20.65;3.83;;;-0.40;99.90;;;;;;4827542;29;20045;-86
2022/01/06 08:15:02;;;;;;;18.98;3.42;;;-0.40;99.90;;;;;;4807861;29;20516;-85
2022/01/06 08:17:28;;;;;;;19.98;3.05;;;-0.40;99.90;;;;;;4827370;29;20056;-85
2022/01/06 08:19:53;;;;;;;24.30;3.30;;;-0.40;99.90;;;;;;4813218;29;20041;-85
2022/01/06 08:22:20;;;;;;;27.27;3.70;;;-0.40;99.90;;;;;;4812695;29;20045;-85
2022/01/06 08:24:46;;;;;;;20.95;3.55;;;-0.40;99.90;;;;;;4832641;29;20100;-85
2022/01/06 08:27:11;;;;;;;28.33;3.37;;;-0.30;99.90;;;;;;4821852;29;20066;-86
2022/01/06 08:29:39;;;;;;;30.37;4.27;;;-0.30;99.90;;;;;;4829495;29;20041;-86
2022/01/06 08:32:05;;;;;;;28.00;3.95;;;-0.30;99.90;;;;;;4830159;29;20075;-86
2022/01/06 08:34:31;;;;;;;28.13;4.30;;;-0.20;99.90;;;;;;4807136;29;20358;-86
2022/01/06 08:36:58;;;;;;;28.20;4.20;;;-0.20;99.90;;;;;;4808974;29;20041;-86
2022/01/06 08:39:23;;;;;;;28.85;4.00;;;-0.20;99.90;;;;;;4825576;29;20149;-86
2022/01/06 08:41:50;;;;;;;21.53;3.13;;;-0.10;99.90;;;;;;4848360;29;20141;-86
2022/01/06 08:44:16;;;;;;;26.92;3.65;;;0.00;99.90;;;;;;4807169;29;20356;-86
2022/01/06 08:46:42;;;;;;;20.63;3.60;;;0.10;99.90;;;;;;4830442;29;20045;-86
2022/01/06 08:49:11;;;;;;;27.63;4.07;;;0.10;99.90;;;;;;4827041;29;20056;-86
2022/01/06 08:51:41;;;;;;;27.33;4.28;;;0.20;99.90;;;;;;4820739;29;20407;-86
2022/01/06 08:54:07;;;;;;;27.73;3.92;;;0.40;99.90;;;;;;4825596;29;20053;-86
2022/01/06 08:56:37;;;;;;;22.42;4.43;;;0.50;99.90;;;;;;4824676;29;20042;-86
2022/01/06 08:59:04;;;;;;;32.97;4.05;;;0.60;99.90;;;;;;4836244;29;20602;-86
2022/01/06 09:01:30;;;;;;;37.20;4.03;;;0.70;99.90;;;;;;4828135;29;20052;-86
2022/01/06 09:03:56;;;;;;;26.33;3.65;;;0.80;99.90;;;;;;4838769;29;20100;-86
2022/01/06 09:06:22;;;;;;;26.33;3.83;;;0.80;99.90;;;;;;4815322;29;20081;-86
2022/01/06 09:08:48;;;;;;;26.27;3.37;;;0.90;99.90;;;;;;4842243;29;20078;-86
2022/01/06 09:11:14;;;;;;;30.03;3.93;;;1.00;99.90;;;;;;4813958;29;20586;-86
2022/01/06 09:13:41;;;;;;;26.00;4.32;;;1.00;99.90;;;;;;4812748;29;20377;-86
2022/01/06 09:16:08;;;;;;;24.40;3.47;;;1.00;99.90;;;;;;4828559;29;20418;-86
2022/01/06 09:18:38;;;;;;;24.98;3.90;;;1.10;99.90;;;;;;4810972;29;20042;-86
2022/01/06 09:21:05;;;;;;;37.33;4.70;;;1.00;99.90;;;;;;4812365;29;20046;-86
2022/01/06 09:23:31;;;;;;;23.35;3.90;;;1.20;99.90;;;;;;4823450;29;20050;-86
2022/01/06 09:25:57;;;;;;;28.65;4.57;;;1.10;99.90;;;;;;4840518;29;20081;-86
2022/01/06 09:28:22;;;;;;;25.27;4.13;;;1.30;99.90;;;;;;4811081;29;20108;-86
2022/01/06 09:30:51;;;;;;;24.87;3.70;;;1.20;99.90;;;;;;4827257;29;20045;-86
2022/01/06 09:33:18;;;;;;;23.60;4.40;;;1.20;99.90;;;;;;4795841;29;20370;-86
2022/01/06 09:35:45;;;;;;;21.13;3.55;;;1.30;99.90;;;;;;4816026;29;20128;-86
2022/01/06 09:38:11;;;;;;;31.60;4.82;;;1.30;99.90;;;;;;4812835;29;20033;-86
2022/01/06 09:40:42;;;;;;;20.13;3.30;;;1.40;99.90;;;;;;4820258;29;20509;-86
2022/01/06 09:43:08;;;;;;;21.88;3.38;;;1.50;99.90;;;;;;4818077;29;20045;-86
2022/01/06 09:45:35;;;;;;;25.77;3.50;;;1.60;99.90;;;;;;4824037;29;20042;-86
2022/01/06 09:48:01;;;;;;;20.85;3.10;;;1.60;99.90;;;;;;4817349;29;20124;-86
2022/01/06 09:50:27;;;;;;;20.23;3.50;;;1.70;99.90;;;;;;4820964;29;20407;-86
2022/01/06 09:52:53;;;;;;;22.93;3.37;;;1.80;99.90;;;;;;4834786;29;20050;-86
2022/01/06 09:55:21;;;;;;;22.13;3.40;;;1.90;99.90;;;;;;4804160;29;20133;-86
2022/01/06 09:57:59;;;;;;;17.38;3.38;;;2.00;99.90;;;;;;4842745;29;20037;-86
2022/01/06 10:00:27;;;;;;;22.13;3.10;;;2.10;99.90;;;;;;4826397;29;20041;-86
2022/01/06 10:03:01;;;;;;;20.73;3.35;;;2.20;99.90;;;;;;4825447;29;20423;-86
2022/01/06 10:05:38;;;;;;;16.15;2.60;;;2.30;99.90;;;;;;4830292;29;20617;-86
2022/01/06 10:08:05;;;;;;;23.35;2.67;;;2.40;99.90;;;;;;4831979;29;20073;-86
2022/01/06 10:10:31;;;;;;;20.70;3.83;;;2.50;99.90;;;;;;4831465;29;20041;-86
2022/01/06 10:12:58;;;;;;;20.83;2.72;;;2.60;99.90;;;;;;4810191;29;20573;-86
2022/01/06 10:15:27;;;;;;;16.38;2.60;;;2.60;99.90;;;;;;4822717;29;20472;-86
2022/01/06 10:17:55;;;;;;;17.83;2.58;;;2.60;99.90;;;;;;4825381;29;20047;-86
2022/01/06 10:20:27;;;;;;;18.05;3.13;;;2.70;99.90;;;;;;4814290;29;20302;-86
2022/01/06 10:22:55;;;;;;;21.45;3.05;;;2.80;99.90;;;;;;4813863;29;20038;-86
2022/01/06 10:25:24;;;;;;;23.90;3.13;;;2.90;99.90;;;;;;4833544;29;20045;-86
2022/01/06 10:27:56;;;;;;;23.90;3.22;;;3.00;99.90;;;;;;4860162;29;20081;-86
2022/01/06 10:30:29;;;;;;;16.92;2.45;;;3.10;99.90;;;;;;4828388;29;20060;-86
2022/01/06 10:32:59;;;;;;;17.80;3.58;;;3.10;99.90;;;;;;4818204;29;20053;-86
2022/01/06 10:35:24;;;;;;;22.75;4.10;;;3.20;99.90;;;;;;4812146;29;20156;-86
2022/01/06 10:37:51;;;;;;;18.50;2.73;;;3.20;99.90;;;;;;4811325;29;20145;-86
2022/01/06 10:40:22;;;;;;;15.30;2.70;;;3.30;99.90;;;;;;4808274;29;20050;-87
2022/01/06 10:42:55;;;;;;;16.58;2.35;;;3.40;99.90;;;;;;4817582;29;20037;-87
2022/01/06 10:45:25;;;;;;;14.75;2.40;;;3.50;99.90;;;;;;4823329;29;20033;-87
2022/01/06 10:47:56;;;;;;;12.75;1.83;;;3.70;99.90;;;;;;4805643;29;20436;-87
2022/01/06 10:50:26;;;;;;;16.20;2.72;;;3.80;99.90;;;;;;4837361;29;20081;-87
2022/01/06 10:53:10;;;;;;;13.75;2.15;;;3.90;99.90;;;;;;4818104;29;20069;-87
2022/01/06 10:55:38;;;;;;;13.77;2.20;;;4.00;99.90;;;;;;4812160;29;20056;-87
2022/01/06 10:58:25;;;;;;;20.13;2.63;;;4.10;99.90;;;;;;4819761;29;20522;-87
2022/01/06 11:01:01;;;;;;;16.17;2.17;;;4.10;99.90;;;;;;4816738;29;20038;-87
2022/01/06 11:03:33;;;;;;;10.88;1.90;;;4.00;99.90;;;;;;4805473;29;20041;-87
2022/01/06 11:06:01;;;;;;;10.82;1.52;;;4.00;99.90;;;;;;4836956;29;20118;-87
2022/01/06 11:08:30;;;;;;;11.30;1.58;;;4.10;99.90;;;;;;4801920;29;20102;-87
2022/01/06 11:13:41;;;;;;;23.83;2.20;;;4.30;99.90;;;;;;4846964;29;20057;-87
2022/01/06 11:16:09;;;;;;;11.63;1.50;;;4.60;99.90;;;;;;4818959;29;20054;-87
2022/01/06 11:18:39;;;;;;;12.80;1.58;;;4.80;99.90;;;;;;4798433;29;20125;-87
2022/01/06 11:21:13;;;;;;;14.27;1.95;;;4.90;99.90;;;;;;4810030;29;20760;-87
2022/01/06 11:23:39;;;;;;;9.27;1.92;;;5.00;99.90;;;;;;4844867;29;20038;-87
2022/01/06 11:26:11;;;;;;;13.60;1.65;;;4.90;99.90;;;;;;4787714;29;20077;-87
2022/01/06 11:28:41;;;;;;;8.02;1.52;;;4.80;99.90;;;;;;4816017;29;20057;-87
2022/01/06 11:31:16;;;;;;;13.50;1.52;;;4.70;99.90;;;;;;4788476;29;20150;-87
2022/01/06 11:33:43;;;;;;;10.98;2.25;;;4.50;99.90;;;;;;4819969;29;20041;-86
2022/01/06 11:36:30;;;;;;;12.70;1.70;;;4.40;99.90;;;;;;4803757;29;20053;-87
2022/01/06 11:39:05;;;;;;;18.02;2.92;;;4.30;99.90;;;;;;4819976;29;20073;-87
2022/01/06 11:41:44;;;;;;;13.43;2.53;;;4.20;99.90;;;;;;4830162;29;20108;-90
2022/01/06 11:44:47;;;;;;;11.27;1.40;;;4.10;99.90;;;;;;4798555;29;20038;-88
2022/01/06 11:47:12;;;;;;;15.85;2.10;;;4.10;99.90;;;;;;4840951;29;20399;-87
2022/01/06 11:49:42;;;;;;;8.63;1.50;;;4.00;99.90;;;;;;4832107;29;20038;-87
2022/01/06 11:52:14;;;;;;;12.77;1.55;;;3.90;99.90;;;;;;4814345;29;20050;-88
2022/01/06 11:54:56;;;;;;;9.82;1.50;;;3.90;99.90;;;;;;4814461;29;20049;-88
2022/01/06 11:57:36;;;;;;;10.50;1.48;;;3.90;99.90;;;;;;4806676;29;20101;-88
2022/01/06 12:00:17;;;;;;;14.18;1.40;;;4.00;99.90;;;;;;4807286;29;20535;-88
2022/01/06 12:02:55;;;;;;;14.65;1.55;;;4.10;99.90;;;;;;4812544;29;20042;-88
2022/01/06 12:05:20;;;;;;;7.60;1.73;;;4.10;99.90;;;;;;4816606;29;20101;-88
2022/01/06 12:07:51;;;;;;;7.17;1.20;;;4.40;99.90;;;;;;4789745;29;20579;-88
2022/01/06 12:10:17;;;;;;;12.18;1.55;;;4.50;99.90;;;;;;4812832;29;20064;-88
2022/01/06 12:12:43;;;;;;;13.23;2.03;;;4.60;99.90;;;;;;4802613;29;20304;-88
2022/01/06 12:15:11;;;;;;;9.97;1.57;;;4.70;99.90;;;;;;4817611;29;20045;-87
2022/01/06 12:17:43;;;;;;;13.57;2.25;;;4.80;99.90;;;;;;4818986;29;20055;-87
2022/01/06 12:20:09;;;;;;;11.18;1.23;;;4.90;99.90;;;;;;4842504;29;20147;-87
2022/01/06 12:22:34;;;;;;;9.57;1.42;;;5.00;99.90;;;;;;4780803;29;20336;-87
2022/01/06 12:25:03;;;;;;;10.80;1.40;;;5.10;99.90;;;;;;4817056;29;20454;-87
2022/01/06 12:27:30;;;;;;;9.68;1.20;;;5.10;99.90;;;;;;4820628;29;20050;-87
2022/01/06 12:29:56;;;;;;;9.90;1.27;;;5.20;99.90;;;;;;4815429;29;20062;-87
2022/01/06 12:32:22;;;;;;;15.13;1.87;;;5.30;99.90;;;;;;4803925;29;20058;-87
2022/01/06 12:34:54;;;;;;;17.47;1.63;;;5.30;99.90;;;;;;4806533;29;20045;-87
2022/01/06 12:37:28;;;;;;;12.52;1.88;;;5.40;99.90;;;;;;4837641;29;20045;-87
2022/01/06 12:39:59;;;;;;;9.75;1.55;;;5.40;99.90;;;;;;4813676;29;20042;-87
2022/01/06 12:42:27;;;;;;;11.40;1.83;;;5.40;99.90;;;;;;4827190;29;20049;-87
2022/01/06 12:44:53;;;;;;;12.88;1.38;;;5.40;99.90;;;;;;4806997;29;20037;-87
2022/01/06 12:47:19;;;;;;;16.77;1.38;;;5.40;99.90;;;;;;4802755;29;20075;-87
2022/01/06 12:49:45;;;;;;;11.88;1.80;;;5.40;99.90;;;;;;4820655;29;20041;-87
2022/01/06 12:52:11;;;;;;;11.90;1.27;;;5.40;99.90;;;;;;4807567;29;20140;-87
2022/01/06 12:54:38;;;;;;;11.03;1.00;;;5.40;99.90;;;;;;4789301;29;20133;-87